createdAt,value
2024-05-09T00:12:39.261Z,5.70
2024-05-09T00:23:44.189Z,5.90
2024-05-09T00:37:34.769Z,6.20
2024-05-09T00:43:23.461Z,6.30
2024-05-09T00:51:44.965Z,6.40
2024-05-09T00:57:16.396Z,6.40
2024-05-09T01:11:10.783Z,6.30
2024-05-09T01:22:15.643Z,6.50
2024-05-09T01:30:36.814Z,6.40
2024-05-09T01:41:42.579Z,6.50
2024-05-09T01:49:59.181Z,6.40
2024-05-09T01:58:17.989Z,6.50
2024-05-09T02:09:20.526Z,6.50
2024-05-09T02:14:54.814Z,6.60
2024-05-09T02:23:21.715Z,6.50
2024-05-09T02:34:26.148Z,6.50
2024-05-09T02:39:54.270Z,6.40
2024-05-09T02:45:22.233Z,6.40
2024-05-09T02:48:14.305Z,6.40
2024-05-09T02:50:57.116Z,6.50
2024-05-09T02:56:25.758Z,6.60
2024-05-09T02:59:11.066Z,6.50
2024-05-09T03:01:53.703Z,6.50
2024-05-09T03:07:25.125Z,6.50
2024-05-09T03:10:18.334Z,6.50
2024-05-09T03:13:09.998Z,6.50
2024-05-09T03:24:09.627Z,6.80
2024-05-09T03:26:52.171Z,6.90
2024-05-09T03:29:37.495Z,6.80
2024-05-09T03:35:05.713Z,6.80
2024-05-09T03:37:53.700Z,6.90
2024-05-09T03:40:38.932Z,6.90
2024-05-09T03:59:53.128Z,7.20
2024-05-09T04:02:38.404Z,7.30
2024-05-09T04:05:21.198Z,7.40
2024-05-09T04:08:06.894Z,7.40
2024-05-09T04:13:37.745Z,7.50
2024-05-09T04:16:22.939Z,7.50
2024-05-09T04:19:05.624Z,7.60
2024-05-09T04:21:50.824Z,7.60
2024-05-09T04:27:21.460Z,7.80
2024-05-09T04:30:12.223Z,7.80
2024-05-09T04:35:44.376Z,8.10
2024-05-09T04:38:30.411Z,8.40
2024-05-09T04:41:13.058Z,8.40
2024-05-09T04:44:01.125Z,8.70
2024-05-09T04:46:43.659Z,9.00
2024-05-09T04:49:28.945Z,9.10
2024-05-09T05:00:35.918Z,9.40
2024-05-09T05:06:06.570Z,9.50
2024-05-09T05:08:49.078Z,9.50
2024-05-09T05:11:34.329Z,9.50
2024-05-09T05:14:17.001Z,9.50
2024-05-09T05:17:05.041Z,9.70
2024-05-09T05:19:47.895Z,9.80
2024-05-09T05:22:33.201Z,9.80
2024-05-09T05:25:15.705Z,9.90
2024-05-09T05:30:44.113Z,10.00
2024-05-09T05:33:32.079Z,10.00
2024-05-09T05:36:14.769Z,10.20
2024-05-09T05:41:42.681Z,10.30
2024-05-09T05:44:28.010Z,10.30
2024-05-09T05:49:59.175Z,10.50
2024-05-09T05:52:41.661Z,10.60
2024-05-09T05:55:27.305Z,10.70
2024-05-09T05:58:10.128Z,11.00
2024-05-09T06:00:56.256Z,11.10
2024-05-09T06:03:39.504Z,11.30
2024-05-09T06:06:27.501Z,11.40
2024-05-09T06:11:55.513Z,11.40
2024-05-09T06:14:38.485Z,11.50
2024-05-09T06:17:23.840Z,11.60
2024-05-09T06:20:13.229Z,11.60
2024-05-09T06:23:05.340Z,13.70
2024-05-09T06:25:48.035Z,11.80
2024-05-09T06:28:33.458Z,11.70
2024-05-09T06:31:16.620Z,11.80
2024-05-09T06:34:04.550Z,12.10
2024-05-09T06:36:47.112Z,12.20
2024-05-09T06:39:34.994Z,12.20
2024-05-09T06:42:17.500Z,12.10
2024-05-09T06:53:22.755Z,12.20
2024-05-09T06:56:11.162Z,12.30
2024-05-09T06:58:54.522Z,12.50
2024-05-09T07:01:39.833Z,12.50
2024-05-09T07:04:22.710Z,12.70
2024-05-09T07:07:09.392Z,12.80
2024-05-09T07:12:40.037Z,13.20
2024-05-09T07:15:22.611Z,13.20
2024-05-09T07:18:13.835Z,13.00
2024-05-09T07:23:45.160Z,13.20
2024-05-09T07:29:17.136Z,13.30
2024-05-09T07:31:59.759Z,13.50
2024-05-09T07:34:45.086Z,13.60
2024-05-09T07:37:27.801Z,13.60
2024-05-09T07:40:21.258Z,13.80
2024-05-09T07:43:11.886Z,13.60
2024-05-09T07:46:28.314Z,13.80
2024-05-09T07:53:21.635Z,13.80
2024-05-09T07:54:58.968Z,13.70
2024-05-09T07:57:41.597Z,14.00
2024-05-09T08:00:30.888Z,14.10
2024-05-09T08:03:19.863Z,14.30
2024-05-09T08:06:02.509Z,14.00
2024-05-09T08:08:49.214Z,14.00
2024-05-09T08:11:33.197Z,14.10
2024-05-09T08:14:18.436Z,14.00
2024-05-09T08:17:03.642Z,14.10
2024-05-09T08:19:48.947Z,13.80
2024-05-09T08:22:36.324Z,13.80
2024-05-09T08:25:18.808Z,13.90
2024-05-09T08:28:04.022Z,14.00
2024-05-09T08:33:34.541Z,14.00
2024-05-09T08:36:20.180Z,14.20
2024-05-09T08:39:05.411Z,14.20
2024-05-09T08:41:51.199Z,14.50
2024-05-09T08:47:19.929Z,14.60
2024-05-09T08:50:11.031Z,14.70
2024-05-09T08:53:04.508Z,14.70
2024-05-09T08:55:48.987Z,14.60
2024-05-09T08:58:35.062Z,14.80
2024-05-09T09:01:19.283Z,14.90
2024-05-09T09:04:06.874Z,14.90
2024-05-09T09:06:53.228Z,15.20
2024-05-09T09:09:45.394Z,15.20
2024-05-09T09:12:28.226Z,15.20
2024-05-09T09:17:58.040Z,15.10
2024-05-09T09:20:43.567Z,15.20
2024-05-09T09:23:28.462Z,15.30
2024-05-09T09:29:02.044Z,15.40
2024-05-09T09:31:47.206Z,15.40
2024-05-09T09:34:31.179Z,15.30
2024-05-09T09:37:17.267Z,15.20
2024-05-09T09:40:00.024Z,15.10
2024-05-09T09:53:50.358Z,15.50
2024-05-09T09:56:33.771Z,15.40
2024-05-09T09:59:21.658Z,15.50
2024-05-09T10:07:36.469Z,15.90
2024-05-09T10:10:30.197Z,15.90
2024-05-09T10:16:12.071Z,16.10
2024-05-09T10:18:57.491Z,16.20
2024-05-09T10:21:47.129Z,16.30
2024-05-09T10:24:47.229Z,16.30
2024-05-09T10:27:33.258Z,15.90
2024-05-09T10:30:33.820Z,16.60
2024-05-09T10:33:23.266Z,17.00
2024-05-09T10:36:14.315Z,17.10
2024-05-09T10:38:56.856Z,17.40
2024-05-09T10:41:42.264Z,17.50
2024-05-09T10:47:10.328Z,18.40
2024-05-09T10:49:56.836Z,19.20
2024-05-09T10:52:42.901Z,19.50
2024-05-09T10:58:20.146Z,21.40
2024-05-09T11:01:06.250Z,22.00
2024-05-09T11:03:52.925Z,22.00
2024-05-09T11:06:39.607Z,21.70
2024-05-09T11:12:08.689Z,21.90
2024-05-09T11:14:57.336Z,21.90
2024-05-09T11:17:40.028Z,22.00
2024-05-09T11:20:29.571Z,22.10
2024-05-09T11:23:15.508Z,22.30
2024-05-09T11:26:01.591Z,22.00
2024-05-09T11:28:45.454Z,22.20
2024-05-09T11:31:30.769Z,22.10
2024-05-09T11:34:13.360Z,22.50
2024-05-09T11:36:58.801Z,22.70
2024-05-09T11:39:44.386Z,22.50
2024-05-09T11:42:29.813Z,23.50
2024-05-09T11:45:12.536Z,23.50
2024-05-09T11:47:58.000Z,23.00
2024-05-09T11:50:40.721Z,23.10
2024-05-09T11:53:26.148Z,23.50
2024-05-09T11:56:12.088Z,23.90
2024-05-09T12:01:40.308Z,23.10
2024-05-09T12:04:25.815Z,22.60
2024-05-09T12:07:11.313Z,22.80
2024-05-09T12:09:57.512Z,22.50
2024-05-09T12:12:42.733Z,21.30
2024-05-09T12:18:11.531Z,21.90
2024-05-09T12:20:56.689Z,21.90
2024-05-09T12:23:39.262Z,22.10
2024-05-09T12:26:24.578Z,22.80
2024-05-09T12:29:09.872Z,23.00
2024-05-09T12:31:54.996Z,23.50
2024-05-09T12:34:37.730Z,24.00
2024-05-09T12:37:23.135Z,23.80
2024-05-09T12:40:12.740Z,24.10
2024-05-09T12:43:03.697Z,24.50
2024-05-09T12:45:49.411Z,24.50
2024-05-09T12:51:17.786Z,22.20
2024-05-09T12:56:46.180Z,22.90
2024-05-09T12:59:31.417Z,22.80
2024-05-09T13:02:19.591Z,22.70
2024-05-09T13:05:02.435Z,22.90
2024-05-09T13:07:48.306Z,22.50
2024-05-09T13:10:32.880Z,22.40
2024-05-09T13:13:18.992Z,22.10
2024-05-09T13:16:01.868Z,21.70
2024-05-09T13:18:49.819Z,21.70
2024-05-09T13:21:32.523Z,22.40
2024-05-09T13:24:19.081Z,22.30
2024-05-09T13:27:01.638Z,22.00
2024-05-09T13:32:32.524Z,21.10
2024-05-09T13:35:17.884Z,20.80
2024-05-09T13:38:05.006Z,20.80
2024-05-09T13:40:48.549Z,21.10
2024-05-09T13:43:34.105Z,21.90
2024-05-09T13:46:16.814Z,22.20
2024-05-09T13:49:02.315Z,22.50
2024-05-09T13:51:50.283Z,23.20
2024-05-09T13:54:32.957Z,23.20
2024-05-09T13:57:18.305Z,23.40
2024-05-09T14:00:00.868Z,23.90
2024-05-09T14:02:47.066Z,23.50
2024-05-09T14:05:29.775Z,23.70
2024-05-09T14:08:19.968Z,23.10
2024-05-09T14:11:05.262Z,22.40
2024-05-09T14:13:47.842Z,21.60
2024-05-09T14:16:33.359Z,21.30
2024-05-09T14:19:16.368Z,21.80
2024-05-09T14:22:01.841Z,22.00
2024-05-09T14:24:47.143Z,22.60
2024-05-09T14:30:22.880Z,23.60
2024-05-09T14:33:17.500Z,23.80
2024-05-09T14:38:45.640Z,22.70
2024-05-09T14:41:31.585Z,22.40
2024-05-09T14:44:16.735Z,22.50
2024-05-09T14:46:59.940Z,22.50
2024-05-09T14:49:45.410Z,22.10
2024-05-09T14:52:28.025Z,21.80
2024-05-09T14:55:13.295Z,21.30
2024-05-09T14:57:58.730Z,21.00
2024-05-09T15:00:49.725Z,20.80
2024-05-09T15:06:20.568Z,20.60
2024-05-09T15:09:04.014Z,20.60
2024-05-09T15:14:34.846Z,20.10
2024-05-09T15:17:20.184Z,19.90
2024-05-09T15:20:04.491Z,19.70
2024-05-09T15:22:52.594Z,19.40
2024-05-09T15:33:53.352Z,19.00
2024-05-09T15:42:06.987Z,18.30
2024-05-09T15:44:53.379Z,18.20
2024-05-09T15:50:35.124Z,18.10
2024-05-09T15:53:24.561Z,18.10
2024-05-09T15:58:52.857Z,18.10
2024-05-09T16:04:23.865Z,17.90
2024-05-09T16:07:06.544Z,17.80
2024-05-09T16:09:51.941Z,17.80
2024-05-09T16:12:34.553Z,17.60
2024-05-09T16:15:19.858Z,17.60
2024-05-09T16:20:51.030Z,17.60
2024-05-09T16:23:39.331Z,17.50
2024-05-09T16:26:21.978Z,17.40
2024-05-09T16:29:07.406Z,17.50
2024-05-09T16:31:50.243Z,17.70
2024-05-09T16:34:35.441Z,18.00
2024-05-09T16:37:20.878Z,18.60
2024-05-09T16:40:09.923Z,19.00
2024-05-09T16:42:57.835Z,19.30
2024-05-09T16:45:44.810Z,19.10
2024-05-09T16:48:27.626Z,18.90
2024-05-09T16:53:58.625Z,19.40
2024-05-09T16:59:26.661Z,19.80
2024-05-09T17:02:12.392Z,19.50
2024-05-09T17:04:55.466Z,19.80
2024-05-09T17:07:40.911Z,20.30
2024-05-09T17:10:32.106Z,20.10
2024-05-09T17:13:19.970Z,19.30
2024-05-09T17:16:05.512Z,18.50
2024-05-09T17:18:51.688Z,18.30
2024-05-09T17:21:34.301Z,18.30
2024-05-09T17:27:05.454Z,17.80
2024-05-09T17:29:50.892Z,17.50
2024-05-09T17:35:19.822Z,16.90
2024-05-09T17:38:02.494Z,16.80
2024-05-09T17:40:47.916Z,16.70
2024-05-09T17:43:33.260Z,16.60
2024-05-09T17:46:18.561Z,16.50
2024-05-09T17:49:01.652Z,16.50
2024-05-09T17:51:54.739Z,16.50
2024-05-09T17:54:37.326Z,16.40
2024-05-09T17:57:22.755Z,16.60
2024-05-09T18:02:57.291Z,16.60
2024-05-09T18:05:40.113Z,16.50
2024-05-09T18:08:25.474Z,16.50
2024-05-09T18:13:54.304Z,15.90
2024-05-09T18:16:39.585Z,15.80
2024-05-09T18:22:07.990Z,15.40
2024-05-09T18:30:28.065Z,15.10
2024-05-09T18:36:04.700Z,14.90
2024-05-09T18:41:32.926Z,14.70
2024-05-09T18:44:18.641Z,14.50
2024-05-09T18:47:01.229Z,14.40
2024-05-09T18:52:33.917Z,14.20
2024-05-09T19:06:24.839Z,13.70
2024-05-09T19:11:52.937Z,13.40
2024-05-09T19:14:35.552Z,13.30
2024-05-09T19:20:05.953Z,13.30
2024-05-09T19:22:54.058Z,13.20
2024-05-09T19:28:22.239Z,13.00
2024-05-09T19:31:05.117Z,12.90
2024-05-09T19:33:50.662Z,12.80
2024-05-09T19:39:21.555Z,12.80
2024-05-09T19:42:04.545Z,12.70
2024-05-09T19:44:49.844Z,12.60
2024-05-09T19:47:32.773Z,12.60
2024-05-09T19:50:26.657Z,12.60
2024-05-09T19:53:15.609Z,12.50
2024-05-09T19:56:03.728Z,12.50
2024-05-09T19:58:46.412Z,12.50
2024-05-09T20:04:14.492Z,12.50
2024-05-09T20:15:15.383Z,12.40
2024-05-09T20:26:14.294Z,11.80
2024-05-09T20:29:02.141Z,11.80
2024-05-09T20:34:30.107Z,11.70
2024-05-09T20:37:12.893Z,11.70
2024-05-09T20:50:57.615Z,11.40
2024-05-09T20:56:25.931Z,11.40
2024-05-09T21:01:56.610Z,11.20
2024-05-09T21:04:39.500Z,11.20
2024-05-09T21:07:24.866Z,11.10
2024-05-09T21:13:05.352Z,11.00
2024-05-09T21:18:37.156Z,10.70
2024-05-09T21:24:05.451Z,10.60
2024-05-09T21:29:33.815Z,10.60
2024-05-09T21:37:50.648Z,10.30
2024-05-09T21:43:22.453Z,10.30
2024-05-09T21:48:50.770Z,10.10
2024-05-09T21:51:38.731Z,10.30
2024-05-09T21:54:21.341Z,10.10
2024-05-09T21:59:51.640Z,10.20
2024-05-09T22:05:22.703Z,10.40
2024-05-09T22:10:54.524Z,10.60
2024-05-09T22:16:23.392Z,10.70
2024-05-09T22:19:06.214Z,10.80
2024-05-09T22:41:12.236Z,11.30
2024-05-09T22:43:57.593Z,11.40
2024-05-09T22:46:40.252Z,11.40
2024-05-09T23:00:31.308Z,11.60
2024-05-09T23:03:16.631Z,11.60
2024-05-09T23:06:02.308Z,11.60
2024-05-09T23:11:30.483Z,11.70
2024-05-09T23:14:15.804Z,11.70
2024-05-09T23:17:01.149Z,11.70
2024-05-09T23:19:44.199Z,11.70
2024-05-09T23:25:12.892Z,11.70
2024-05-09T23:38:57.805Z,11.70
2024-05-09T23:44:25.761Z,11.70
2024-05-09T23:49:56.530Z,11.80
2024-05-09T23:55:24.571Z,11.80
